ESOK/KSD METAR and TAF weather

Enter ICAO airport designator
Station Type Date Time Source
ESOK METAR 2018/10/21 03:20 UTC NOAA

ESOK 210320Z AUTO 21008KT 9999 NCD 06/06 Q1019


Station Type Date Time Source
ESOK Decoded METAR 2018/10/21 03:20 UTC NOAA

Karlstad , Sweden (ESOK) 59-26-41N 013-20-15E
Oct 20, 2018 - 11:20 PM EDT / 2018.10.21 0320 UTC
Wind: from the SSW (210 degrees) at 9 MPH (8 KT):0
Visibility: greater than 7 mile(s):0
Temperature: 42 F (6 C)
Dew Point: 42 F (6 C)
Relative Humidity: 100%
Pressure (altimeter): 30.09 in. Hg (1019 hPa)
ob: ESOK 210320Z AUTO 21008KT 9999 NCD 06/06 Q1019
cycle: 3

Station Type Date Time Source
ESOK TAF 2017/05/22 06:33 UTC NOAA

TAF ESOK 220530Z 2206/2224 28006KT CAVOK


Example: see airport list